LEVD/VLL METAR and TAF weather

Enter ICAO airport designator
Station Type Date Time Source
LEVD METAR 2020/07/14 21:00 UTC NOAA

LEVD 142100Z 06014KT CAVOK 17/09 Q1019


Station Type Date Time Source
LEVD Decoded METAR 2020/07/14 21:00 UTC NOAA

Valladolid / Villanubla, Spain (LEVD) 41-43N 004-51W 846M
Jul 14, 2020 - 05:00 PM EDT / 2020.07.14 2100 UTC
Wind: from the ENE (060 degrees) at 16 MPH (14 KT):0
Visibility: greater than 7 mile(s):0
Temperature: 62 F (17 C)
Dew Point: 48 F (9 C)
Relative Humidity: 59%
Pressure (altimeter): 30.09 in. Hg (1019 hPa)
ob: LEVD 142100Z 06014KT CAVOK 17/09 Q1019
cycle: 21

Station Type Date Time Source
LEVD TAF 2020/07/14 18:27 UTC NOAA

TAF LEVD 141700Z 1418/1518 04012KT 9999 FEW040 TX28/1515Z TN11/1506Z PROB40
TEMPO 1418/1518 04015G25KT

Example: see airport list